Time;durP1;ratioP1;P1;durP2;ratioP2;P2;SDS_P1;SDS_P2;PMS_P1;PMS_P2;Temp;Humidity;BMP_temperature;BMP_pressure;BME280_temperature;BME280_humidity;BME280_pressure;Samples;Min_cycle;Max_cycle;Signal;HPM_P1;HPM_P2
2022/11/29 00:01:06;;;;;;;85.93;35.03;;;8.70;99.90;;;;;;5056857;28;20037;-75
2022/11/29 00:03:32;;;;;;;103.50;34.45;;;8.70;99.90;;;;;;5053841;28;20076;-75
2022/11/29 00:06:07;;;;;;;109.18;37.35;;;8.70;99.90;;;;;;5057674;28;20052;-75
2022/11/29 00:08:33;;;;;;;100.75;36.63;;;8.70;99.90;;;;;;5055620;28;20116;-74
2022/11/29 00:11:08;;;;;;;94.20;34.92;;;8.70;99.90;;;;;;5061063;28;20124;-74
2022/11/29 00:13:33;;;;;;;91.32;37.22;;;8.70;99.90;;;;;;5064321;28;20091;-74
2022/11/29 00:16:07;;;;;;;90.57;35.88;;;8.70;99.90;;;;;;5069082;28;21001;-75
2022/11/29 00:18:33;;;;;;;90.45;35.53;;;8.80;99.90;;;;;;5056262;28;20439;-74
2022/11/29 00:20:58;;;;;;;95.72;35.80;;;8.70;99.90;;;;;;5093592;28;20109;-75
2022/11/29 00:23:24;;;;;;;87.60;34.65;;;8.70;99.90;;;;;;5084703;28;20041;-75
2022/11/29 00:25:50;;;;;;;83.22;33.00;;;8.70;99.90;;;;;;5057276;28;20197;-75
2022/11/29 00:28:16;;;;;;;88.18;33.53;;;8.70;99.90;;;;;;5059672;28;20068;-74
2022/11/29 00:30:41;;;;;;;122.32;36.60;;;8.70;99.90;;;;;;5089314;28;20487;-74
2022/11/29 00:33:07;;;;;;;110.45;37.85;;;8.70;99.90;;;;;;5099980;28;20032;-74
2022/11/29 00:35:32;;;;;;;98.18;35.88;;;8.70;99.90;;;;;;5072748;28;20503;-74
2022/11/29 00:37:58;;;;;;;97.28;36.00;;;8.70;99.90;;;;;;5055612;28;20093;-74
2022/11/29 00:40:23;;;;;;;98.85;34.40;;;8.70;99.90;;;;;;5064742;28;20403;-75
2022/11/29 00:42:49;;;;;;;96.30;34.50;;;8.70;99.90;;;;;;5063242;28;20093;-74
2022/11/29 00:45:15;;;;;;;91.85;33.30;;;8.70;99.90;;;;;;5061275;28;20090;-73
2022/11/29 00:47:40;;;;;;;108.13;35.30;;;8.70;99.90;;;;;;5062814;28;20037;-74
2022/11/29 00:50:06;;;;;;;97.22;33.60;;;8.70;99.90;;;;;;5048420;28;23083;-74
2022/11/29 00:52:32;;;;;;;101.18;35.42;;;8.70;99.90;;;;;;5069439;28;20048;-74
2022/11/29 00:54:58;;;;;;;92.53;33.15;;;8.70;99.90;;;;;;5061986;28;20149;-74
2022/11/29 00:57:23;;;;;;;104.47;35.20;;;8.70;99.90;;;;;;5062651;28;20433;-74
2022/11/29 00:59:49;;;;;;;104.82;34.00;;;8.70;99.90;;;;;;5063934;28;20033;-75
2022/11/29 01:02:14;;;;;;;114.35;35.95;;;8.70;99.90;;;;;;5062056;28;20072;-74
2022/11/29 01:04:40;;;;;;;99.50;33.20;;;8.70;99.90;;;;;;5058194;28;20041;-74
2022/11/29 01:07:06;;;;;;;109.50;34.53;;;8.70;99.90;;;;;;5059295;28;20515;-75
2022/11/29 01:09:31;;;;;;;94.60;33.20;;;8.70;99.90;;;;;;5057760;28;20037;-74
2022/11/29 01:11:57;;;;;;;102.95;31.33;;;8.80;99.90;;;;;;5068839;28;20048;-75
2022/11/29 01:14:22;;;;;;;104.40;32.10;;;8.80;99.90;;;;;;5058858;28;20499;-75
2022/11/29 01:16:48;;;;;;;99.20;31.80;;;8.70;99.90;;;;;;5053018;28;20094;-74
2022/11/29 01:19:13;;;;;;;97.00;29.08;;;8.70;99.90;;;;;;5055828;28;20155;-75
2022/11/29 01:21:40;;;;;;;98.60;30.17;;;8.70;99.90;;;;;;5080592;28;20487;-74
2022/11/29 01:24:05;;;;;;;97.68;30.15;;;8.70;99.90;;;;;;5060416;28;20631;-74
2022/11/29 01:26:31;;;;;;;95.65;30.83;;;8.80;99.90;;;;;;5059808;28;20048;-74
2022/11/29 01:28:58;;;;;;;103.53;29.38;;;8.70;99.90;;;;;;5050975;28;20084;-75
2022/11/29 01:31:27;;;;;;;102.30;29.92;;;8.70;99.90;;;;;;5054529;28;20047;-74
2022/11/29 01:33:54;;;;;;;96.03;27.05;;;8.70;99.90;;;;;;5058306;28;20048;-75
2022/11/29 01:36:20;;;;;;;92.35;28.65;;;8.70;99.90;;;;;;5061689;28;20040;-75
2022/11/29 01:38:45;;;;;;;97.40;27.00;;;8.80;99.90;;;;;;5055199;28;20043;-74
2022/11/29 01:41:14;;;;;;;98.70;28.70;;;8.80;99.90;;;;;;5055164;28;20052;-74
2022/11/29 01:44:03;;;;;;;101.55;28.85;;;8.70;99.90;;;;;;5055683;28;20044;-74
2022/11/29 01:46:31;;;;;;;101.97;27.98;;;8.70;99.90;;;;;;5059513;28;20495;-74
2022/11/29 01:49:02;;;;;;;96.55;29.05;;;8.70;99.90;;;;;;5067227;28;20395;-74
2022/11/29 01:51:29;;;;;;;103.25;28.73;;;8.80;99.90;;;;;;5093675;28;20145;-74
2022/11/29 01:53:55;;;;;;;105.25;30.17;;;8.80;99.90;;;;;;5065301;28;20132;-75
2022/11/29 01:56:22;;;;;;;103.30;30.83;;;8.80;99.90;;;;;;5058785;28;20709;-75
2022/11/29 01:58:47;;;;;;;103.43;28.80;;;8.80;99.90;;;;;;5051042;28;20083;-74
2022/11/29 02:01:14;;;;;;;90.30;29.65;;;8.80;99.90;;;;;;5056962;28;20123;-74
2022/11/29 02:03:40;;;;;;;121.20;29.77;;;8.80;99.90;;;;;;5060546;28;20784;-74
2022/11/29 02:06:06;;;;;;;108.90;29.33;;;8.70;99.90;;;;;;5061654;28;20116;-74
2022/11/29 02:08:42;;;;;;;93.53;27.42;;;8.80;99.90;;;;;;5080339;28;20148;-74
2022/11/29 02:11:25;;;;;;;94.40;29.55;;;8.80;99.90;;;;;;5061452;28;20044;-74
2022/11/29 02:14:18;;;;;;;94.22;26.38;;;8.80;99.90;;;;;;5076718;28;20045;-74
2022/11/29 02:17:28;;;;;;;111.82;27.15;;;8.70;99.90;;;;;;5060622;28;20554;-74
2022/11/29 02:20:18;;;;;;;105.22;26.90;;;8.80;99.90;;;;;;5087077;28;20082;-74
2022/11/29 02:22:48;;;;;;;123.78;30.23;;;8.80;99.90;;;;;;5051036;28;20106;-73
2022/11/29 02:25:39;;;;;;;96.78;28.50;;;8.70;99.90;;;;;;5048714;28;20040;-75
2022/11/29 02:28:38;;;;;;;100.25;27.02;;;8.80;99.90;;;;;;5060706;28;20507;-74
2022/11/29 02:31:22;;;;;;;95.22;26.98;;;8.70;99.90;;;;;;5047517;28;20037;-73
2022/11/29 02:33:56;;;;;;;94.82;28.05;;;8.70;99.90;;;;;;5066176;28;20068;-74
2022/11/29 02:37:02;;;;;;;103.85;25.30;;;8.70;99.90;;;;;;5062177;28;20043;-74
2022/11/29 02:39:31;;;;;;;115.70;28.13;;;8.70;99.90;;;;;;5059597;28;20054;-74
2022/11/29 02:42:17;;;;;;;103.63;26.27;;;8.70;99.90;;;;;;5071210;28;20056;-74
2022/11/29 02:44:56;;;;;;;107.70;27.42;;;8.80;99.90;;;;;;5064375;28;20495;-75
2022/11/29 02:47:43;;;;;;;136.57;30.30;;;8.70;99.90;;;;;;5048920;28;20037;-74
2022/11/29 02:50:27;;;;;;;121.15;29.00;;;8.70;99.90;;;;;;5050383;28;20061;-75
2022/11/29 02:53:12;;;;;;;109.63;29.58;;;8.70;99.90;;;;;;5050269;28;20110;-73
2022/11/29 02:56:15;;;;;;;154.35;31.77;;;8.80;99.90;;;;;;5051354;28;20060;-74
2022/11/29 02:58:49;;;;;;;124.55;30.00;;;8.70;99.90;;;;;;5046480;28;20047;-74
2022/11/29 03:01:35;;;;;;;127.15;30.75;;;8.70;99.90;;;;;;5055673;28;20137;-74
2022/11/29 03:04:33;;;;;;;127.18;29.98;;;8.70;99.90;;;;;;5049788;28;20049;-74
2022/11/29 03:07:21;;;;;;;133.73;30.48;;;8.70;99.90;;;;;;5045682;28;20071;-74
2022/11/29 03:09:54;;;;;;;135.13;29.70;;;8.70;99.90;;;;;;5077183;28;20378;-74
2022/11/29 03:12:39;;;;;;;118.75;28.83;;;8.70;99.90;;;;;;5073853;28;20044;-74
2022/11/29 03:15:28;;;;;;;124.82;29.58;;;8.70;99.90;;;;;;5068605;28;20047;-72
2022/11/29 03:18:02;;;;;;;118.07;30.55;;;8.70;99.90;;;;;;5055724;28;20526;-72
2022/11/29 03:20:46;;;;;;;123.78;30.00;;;8.80;99.90;;;;;;5054946;28;20053;-72
2022/11/29 03:23:48;;;;;;;127.15;28.38;;;8.70;99.90;;;;;;5061715;28;20074;-72
2022/11/29 03:26:28;;;;;;;137.63;32.40;;;8.80;99.90;;;;;;5058572;28;20036;-72
2022/11/29 03:29:18;;;;;;;140.27;31.45;;;8.70;99.90;;;;;;5072141;28;20095;-72
2022/11/29 03:32:21;;;;;;;143.48;30.90;;;8.80;99.90;;;;;;5072862;28;20053;-72
2022/11/29 03:35:08;;;;;;;121.28;29.38;;;8.70;99.90;;;;;;5060817;28;20056;-72
2022/11/29 03:37:54;;;;;;;163.73;31.42;;;8.70;99.90;;;;;;5057644;28;20037;-72
2022/11/29 03:40:26;;;;;;;146.60;31.42;;;8.80;99.90;;;;;;5061937;28;20053;-72
2022/11/29 03:43:05;;;;;;;169.45;34.40;;;8.70;99.90;;;;;;5084072;28;20135;-72
2022/11/29 03:45:44;;;;;;;130.68;30.38;;;8.70;99.90;;;;;;5067056;28;20107;-72
2022/11/29 03:48:33;;;;;;;129.18;30.45;;;8.70;99.90;;;;;;5074838;28;20113;-72
2022/11/29 03:51:05;;;;;;;143.38;32.03;;;8.70;99.90;;;;;;5062966;28;20052;-72
2022/11/29 03:53:34;;;;;;;249.88;36.15;;;8.70;99.90;;;;;;5067551;28;20669;-72
2022/11/29 03:56:03;;;;;;;151.75;30.63;;;8.80;99.90;;;;;;5062469;28;20414;-72
2022/11/29 03:58:43;;;;;;;247.13;33.13;;;8.70;99.90;;;;;;5064237;28;20547;-72
2022/11/29 04:01:25;;;;;;;230.15;29.58;;;8.70;99.90;;;;;;5064102;28;20052;-72
2022/11/29 04:04:34;;;;;;;228.15;30.15;;;8.60;99.90;;;;;;5080059;28;20079;-72
2022/11/29 04:07:15;;;;;;;148.45;26.27;;;8.60;99.90;;;;;;5063595;28;20049;-72
2022/11/29 04:10:35;;;;;;;147.88;29.13;;;8.60;99.90;;;;;;5067568;28;20046;-72
2022/11/29 04:13:09;;;;;;;123.00;26.85;;;8.60;99.90;;;;;;5064086;28;20044;-72
2022/11/29 04:16:19;;;;;;;113.03;29.33;;;8.50;99.90;;;;;;5054604;28;20173;-72
2022/11/29 04:19:02;;;;;;;98.82;24.10;;;8.50;99.90;;;;;;5051606;28;20079;-72
2022/11/29 04:21:50;;;;;;;95.40;24.48;;;8.40;99.90;;;;;;5081358;28;20442;-72
2022/11/29 04:24:47;;;;;;;82.57;24.05;;;8.40;99.90;;;;;;5065620;28;20182;-72
2022/11/29 04:27:15;;;;;;;;;;;8.40;99.90;;;;;;5056509;28;20619;-72
2022/11/29 04:29:49;;;;;;;93.45;23.48;;;8.30;99.90;;;;;;5052592;28;20349;-72
2022/11/29 04:32:47;;;;;;;79.65;23.25;;;8.30;99.90;;;;;;5060927;28;20483;-72
2022/11/29 04:35:48;;;;;;;87.38;23.55;;;8.30;99.90;;;;;;5057121;28;20051;-72
2022/11/29 04:38:31;;;;;;;89.65;24.05;;;8.30;99.90;;;;;;5094594;28;20062;-72
2022/11/29 04:41:27;;;;;;;66.97;25.08;;;8.20;99.90;;;;;;5050578;28;20040;-72
2022/11/29 04:44:31;;;;;;;70.05;23.38;;;8.20;99.90;;;;;;5063253;28;20065;-72
2022/11/29 04:47:26;;;;;;;93.68;23.63;;;8.20;99.90;;;;;;5048149;28;20064;-72
2022/11/29 04:50:32;;;;;;;101.45;26.65;;;8.20;99.90;;;;;;5058728;28;20049;-72
2022/11/29 04:53:05;;;;;;;104.32;24.13;;;8.20;99.90;;;;;;5057784;28;20048;-72
2022/11/29 04:55:33;;;;;;;89.55;25.77;;;8.20;99.90;;;;;;5062894;28;20045;-71
2022/11/29 04:58:23;;;;;;;107.53;27.98;;;8.20;99.90;;;;;;5076829;28;20121;-72
2022/11/29 05:00:55;;;;;;;98.70;26.98;;;8.20;99.90;;;;;;5060080;28;20518;-72
2022/11/29 05:03:45;;;;;;;92.20;28.05;;;8.20;99.90;;;;;;5082779;28;20079;-72
2022/11/29 05:06:38;;;;;;;128.52;28.25;;;8.20;99.90;;;;;;5058859;28;20052;-72
2022/11/29 05:09:35;;;;;;;133.82;26.65;;;8.20;99.90;;;;;;5079632;28;20703;-72
2022/11/29 05:12:09;;;;;;;214.20;29.48;;;8.20;99.90;;;;;;5077841;28;20048;-72
2022/11/29 05:14:49;;;;;;;162.35;26.05;;;8.20;99.90;;;;;;5096970;27;20037;-72
2022/11/29 05:17:25;;;;;;;110.72;25.38;;;8.20;99.90;;;;;;5061336;28;20449;-72
2022/11/29 05:20:18;;;;;;;129.80;26.83;;;8.20;99.90;;;;;;5060755;28;20094;-71
2022/11/29 05:23:00;;;;;;;142.88;27.00;;;8.20;99.90;;;;;;5063137;28;20048;-72
2022/11/29 05:25:52;;;;;;;98.22;28.05;;;8.10;99.90;;;;;;5060450;28;20496;-72
2022/11/29 05:28:20;;;;;;;138.27;28.38;;;8.10;99.90;;;;;;5059185;28;20069;-72
2022/11/29 05:31:12;;;;;;;146.73;32.90;;;8.10;99.90;;;;;;5050082;28;20534;-72
2022/11/29 05:33:52;;;;;;;177.18;29.02;;;8.10;99.90;;;;;;5068799;28;20115;-72
2022/11/29 05:36:23;;;;;;;211.15;33.45;;;8.10;99.90;;;;;;5055170;28;20111;-72
2022/11/29 05:38:59;;;;;;;118.70;27.52;;;8.10;99.90;;;;;;5065711;28;20079;-72
2022/11/29 05:41:54;;;;;;;133.80;29.90;;;8.10;99.90;;;;;;5056695;28;20060;-72
2022/11/29 05:44:48;;;;;;;147.60;30.00;;;8.10;99.90;;;;;;5049272;28;20116;-72
2022/11/29 05:47:22;;;;;;;157.23;30.15;;;8.10;99.90;;;;;;5061198;28;20043;-72
2022/11/29 05:50:10;;;;;;;155.32;29.33;;;8.10;99.90;;;;;;5059993;28;20072;-72
2022/11/29 05:52:54;;;;;;;200.77;29.92;;;8.10;99.90;;;;;;5069514;28;20052;-72
2022/11/29 05:55:38;;;;;;;155.25;31.35;;;8.10;99.90;;;;;;5052650;28;20601;-72
2022/11/29 05:58:46;;;;;;;174.93;30.60;;;8.10;99.90;;;;;;5054018;28;20215;-72
2022/11/29 06:01:18;;;;;;;148.27;30.67;;;8.10;99.90;;;;;;5059120;28;20060;-72
2022/11/29 06:03:56;;;;;;;151.65;29.70;;;8.10;99.90;;;;;;5056954;28;20173;-72
2022/11/29 06:06:38;;;;;;;116.47;28.48;;;8.10;99.90;;;;;;5078706;28;20045;-72
2022/11/29 06:09:36;;;;;;;126.07;29.00;;;8.10;99.90;;;;;;5060724;28;20059;-72
2022/11/29 06:12:23;;;;;;;158.35;29.17;;;8.10;99.90;;;;;;5057167;28;20041;-72
2022/11/29 06:15:22;;;;;;;184.48;31.58;;;8.10;99.90;;;;;;5066253;28;20052;-72
2022/11/29 06:18:21;;;;;;;127.63;27.67;;;8.10;99.90;;;;;;5062110;28;20049;-72
2022/11/29 06:21:01;;;;;;;138.43;28.15;;;8.10;99.90;;;;;;5052296;28;20172;-72
2022/11/29 06:23:33;;;;;;;123.03;30.52;;;8.10;99.90;;;;;;5056570;28;20055;-72
2022/11/29 06:26:28;;;;;;;104.13;28.27;;;8.10;99.90;;;;;;5060228;28;20427;-72
2022/11/29 06:28:56;;;;;;;204.02;31.50;;;8.10;99.90;;;;;;5050229;28;20071;-72
2022/11/29 06:31:42;;;;;;;149.55;29.55;;;8.10;99.90;;;;;;5073040;28;20040;-72
2022/11/29 06:34:24;;;;;;;190.20;30.23;;;8.10;99.90;;;;;;5052119;28;20036;-72
2022/11/29 06:37:07;;;;;;;149.75;32.08;;;8.10;99.90;;;;;;5064269;28;20043;-72
2022/11/29 06:39:33;;;;;;;163.32;28.55;;;8.10;99.90;;;;;;5082479;28;20048;-72
2022/11/29 06:41:58;;;;;;;175.77;32.45;;;8.10;99.90;;;;;;5089747;28;20048;-72
2022/11/29 06:44:24;;;;;;;89.47;28.20;;;8.10;99.90;;;;;;5064619;28;20037;-73
2022/11/29 06:47:05;;;;;;;160.23;29.38;;;8.10;99.90;;;;;;5061470;28;20102;-74
2022/11/29 06:50:02;;;;;;;148.60;28.70;;;8.10;99.90;;;;;;5049627;28;20094;-74
2022/11/29 06:52:48;;;;;;;119.70;26.20;;;8.10;99.90;;;;;;5058718;28;20901;-74
2022/11/29 06:55:30;;;;;;;81.55;23.95;;;8.00;99.90;;;;;;5096818;28;20059;-74
2022/11/29 06:58:17;;;;;;;85.25;26.63;;;8.00;99.90;;;;;;5055442;28;20499;-74
2022/11/29 07:00:53;;;;;;;97.68;26.20;;;8.00;99.90;;;;;;5051356;28;20065;-74
2022/11/29 07:03:58;;;;;;;88.90;25.50;;;8.00;99.90;;;;;;5067785;28;20475;-75
2022/11/29 07:06:27;;;;;;;101.75;28.17;;;8.00;99.90;;;;;;5069080;28;20049;-74
2022/11/29 07:08:58;;;;;;;86.18;24.38;;;8.00;99.90;;;;;;5056337;28;20403;-74
2022/11/29 07:11:27;;;;;;;110.43;27.40;;;7.90;99.90;;;;;;5064221;28;20052;-74
2022/11/29 07:13:53;;;;;;;106.88;27.27;;;8.00;99.90;;;;;;5052680;28;20139;-75
2022/11/29 07:16:43;;;;;;;140.53;28.97;;;8.00;99.90;;;;;;5057078;28;20041;-75
2022/11/29 07:19:35;;;;;;;79.45;26.27;;;8.00;99.90;;;;;;5089096;28;20294;-75
2022/11/29 07:22:40;;;;;;;113.47;27.00;;;8.00;99.90;;;;;;5097097;27;20052;-75
2022/11/29 07:25:22;;;;;;;94.53;27.35;;;8.00;99.90;;;;;;5100628;27;20057;-75
2022/11/29 07:27:54;;;;;;;122.38;29.30;;;8.00;99.90;;;;;;5066873;28;20140;-75
2022/11/29 07:30:27;;;;;;;106.75;29.35;;;8.00;99.90;;;;;;5078998;28;20052;-74
2022/11/29 07:33:06;;;;;;;171.90;34.53;;;8.00;99.90;;;;;;5060880;28;20049;-75
2022/11/29 07:35:57;;;;;;;145.15;28.83;;;8.00;99.90;;;;;;5064169;28;20044;-75
2022/11/29 07:38:42;;;;;;;87.55;24.30;;;8.00;99.90;;;;;;5071578;28;20036;-75
2022/11/29 07:41:26;;;;;;;97.35;27.05;;;8.00;99.90;;;;;;5060514;28;20044;-75
2022/11/29 07:44:07;;;;;;;78.82;24.95;;;8.00;99.90;;;;;;5064935;28;20036;-75
2022/11/29 07:46:33;;;;;;;103.85;28.85;;;8.00;99.90;;;;;;5066066;28;20040;-75
2022/11/29 07:48:58;;;;;;;124.70;28.73;;;8.00;99.90;;;;;;5068438;28;20045;-76
2022/11/29 07:51:24;;;;;;;74.15;25.08;;;8.00;99.90;;;;;;5069087;28;20028;-75
2022/11/29 07:53:53;;;;;;;73.30;24.40;;;8.00;99.90;;;;;;5063389;28;20036;-75
2022/11/29 07:56:19;;;;;;;68.95;24.35;;;8.00;99.90;;;;;;5063317;28;20288;-75
2022/11/29 07:58:44;;;;;;;55.58;23.55;;;8.00;99.90;;;;;;5065202;28;20044;-75
2022/11/29 08:01:13;;;;;;;109.32;30.92;;;7.90;99.90;;;;;;5054593;28;20547;-75
2022/11/29 08:03:41;;;;;;;115.93;26.27;;;7.90;99.90;;;;;;5064058;28;20146;-73
2022/11/29 08:06:06;;;;;;;143.15;26.73;;;7.90;99.90;;;;;;5060341;28;20037;-76
2022/11/29 08:08:32;;;;;;;170.00;28.88;;;7.90;99.90;;;;;;5086618;28;20106;-74
2022/11/29 08:10:58;;;;;;;100.70;25.77;;;7.90;99.90;;;;;;5065824;28;20050;-74
2022/11/29 08:13:24;;;;;;;146.85;25.33;;;7.90;99.90;;;;;;5057574;28;20041;-76
2022/11/29 08:15:50;;;;;;;112.45;27.13;;;7.80;99.90;;;;;;5070324;28;20491;-75
2022/11/29 08:18:16;;;;;;;128.85;25.58;;;7.80;99.90;;;;;;5073526;28;20052;-79
2022/11/29 08:20:43;;;;;;;94.10;26.45;;;7.80;99.90;;;;;;5062041;28;20040;-80
2022/11/29 08:23:11;;;;;;;107.45;26.60;;;7.80;99.90;;;;;;5065047;28;20107;-76
2022/11/29 08:25:37;;;;;;;69.20;22.08;;;7.80;99.90;;;;;;5063890;28;20035;-77
2022/11/29 08:28:04;;;;;;;58.60;25.25;;;7.80;99.90;;;;;;5056515;28;20048;-78
2022/11/29 08:30:29;;;;;;;58.70;23.50;;;7.80;99.90;;;;;;5063223;28;20044;-75
2022/11/29 08:32:55;;;;;;;101.55;25.13;;;7.80;99.90;;;;;;5061716;28;20044;-77
2022/11/29 08:35:22;;;;;;;74.63;25.67;;;7.80;99.90;;;;;;5053908;28;20040;-76
2022/11/29 08:37:48;;;;;;;;;;;7.70;99.90;;;;;;5063408;28;20099;-75
2022/11/29 08:40:15;;;;;;;72.18;22.80;;;7.80;99.90;;;;;;5061640;28;19920;-78
2022/11/29 08:42:41;;;;;;;83.53;24.10;;;7.70;99.90;;;;;;5057768;28;20037;-77
2022/11/29 08:45:08;;;;;;;69.30;23.48;;;7.70;99.90;;;;;;5064263;28;20430;-78
2022/11/29 08:47:37;;;;;;;77.95;24.08;;;7.80;99.90;;;;;;5054749;28;20136;-75
2022/11/29 08:50:09;;;;;;;66.28;22.60;;;7.80;99.90;;;;;;5065481;28;20043;-74
2022/11/29 08:55:25;;;;;;;65.68;22.83;;;7.80;99.90;;;;;;5049962;28;20048;-77
2022/11/29 08:57:52;;;;;;;80.28;23.50;;;7.80;99.90;;;;;;5062804;28;20143;-77
2022/11/29 09:00:22;;;;;;;59.15;22.83;;;7.80;99.90;;;;;;5060472;28;20048;-78
2022/11/29 09:02:48;;;;;;;98.18;25.85;;;7.80;99.90;;;;;;5057241;28;20095;-76
2022/11/29 09:05:14;;;;;;;81.32;22.35;;;7.80;99.90;;;;;;5056110;28;20524;-76
2022/11/29 09:07:40;;;;;;;71.28;24.85;;;7.80;99.90;;;;;;5068274;28;20426;-73
2022/11/29 09:10:07;;;;;;;75.07;21.00;;;7.80;99.90;;;;;;5061697;28;20052;-73
2022/11/29 09:12:36;;;;;;;;;;;7.80;99.90;;;;;;5053774;28;20048;-77
2022/11/29 09:15:04;;;;;;;51.75;20.58;;;7.80;99.90;;;;;;5058829;28;19921;-75
2022/11/29 09:17:30;;;;;;;70.10;22.48;;;7.80;99.90;;;;;;5059538;28;20037;-74
2022/11/29 09:19:56;;;;;;;57.58;21.27;;;7.90;99.90;;;;;;5053645;28;20045;-74
2022/11/29 09:22:21;;;;;;;59.50;22.90;;;7.90;99.90;;;;;;5068246;28;20102;-74
2022/11/29 09:24:47;;;;;;;64.25;21.80;;;7.90;99.90;;;;;;5062100;28;20033;-75
2022/11/29 09:27:13;;;;;;;76.93;24.13;;;8.00;99.90;;;;;;5068048;28;20048;-77
2022/11/29 09:29:38;;;;;;;90.40;24.35;;;8.00;99.90;;;;;;5064188;28;20056;-76
2022/11/29 09:32:04;;;;;;;98.65;26.00;;;8.00;99.90;;;;;;5056223;28;20037;-75
2022/11/29 09:34:30;;;;;;;74.10;25.90;;;8.00;99.90;;;;;;5055454;28;20033;-76
2022/11/29 09:36:55;;;;;;;88.68;27.33;;;8.00;99.90;;;;;;5070020;28;20048;-82
2022/11/29 09:39:21;;;;;;;71.18;25.25;;;8.00;99.90;;;;;;5057861;28;20048;-73
2022/11/29 09:42:02;;;;;;;71.03;25.50;;;8.00;99.90;;;;;;5066902;28;20119;-73
2022/11/29 09:45:00;;;;;;;62.17;24.17;;;8.00;99.90;;;;;;5068438;28;20032;-75
2022/11/29 09:47:55;;;;;;;64.00;23.10;;;8.10;99.90;;;;;;5067678;28;20079;-76
2022/11/29 09:50:26;;;;;;;59.03;24.05;;;8.10;99.90;;;;;;5062654;28;20048;-73
2022/11/29 09:53:19;;;;;;;69.88;25.80;;;8.10;99.90;;;;;;5067587;28;20093;-74
2022/11/29 09:55:51;;;;;;;73.80;26.00;;;8.10;99.90;;;;;;5088862;28;20436;-75
2022/11/29 09:58:20;;;;;;;63.97;24.45;;;8.10;99.90;;;;;;5064185;28;20136;-69
2022/11/29 10:00:57;;;;;;;82.35;26.92;;;8.20;99.90;;;;;;5065575;28;20097;-73
2022/11/29 10:03:25;;;;;;;;;;;8.20;99.90;;;;;;5066723;28;20488;-72
2022/11/29 10:05:58;;;;;;;76.38;26.45;;;8.20;99.90;;;;;;5065053;28;19921;-73
2022/11/29 10:08:35;;;;;;;71.10;28.20;;;8.20;99.90;;;;;;5063359;28;20123;-72
2022/11/29 10:11:15;;;;;;;74.88;27.30;;;8.20;99.90;;;;;;5064250;28;20063;-73
2022/11/29 10:13:46;;;;;;;60.80;25.75;;;8.20;99.90;;;;;;5063343;28;20044;-73
2022/11/29 10:16:30;;;;;;;76.43;29.30;;;8.30;99.90;;;;;;5067751;28;20051;-72
2022/11/29 10:19:03;;;;;;;72.00;25.20;;;8.30;99.90;;;;;;5062356;28;20052;-72
2022/11/29 10:21:34;;;;;;;66.70;25.25;;;8.30;99.90;;;;;;5066674;28;20127;-72
2022/11/29 10:24:09;;;;;;;53.35;24.05;;;8.30;99.90;;;;;;5065354;28;20152;-72
2022/11/29 10:26:36;;;;;;;57.95;26.70;;;8.30;99.90;;;;;;5068058;28;20041;-72
2022/11/29 10:29:02;;;;;;;58.97;25.20;;;8.30;99.90;;;;;;5062607;28;20455;-72
2022/11/29 10:31:33;;;;;;;63.80;24.73;;;8.30;99.90;;;;;;5059451;28;20036;-83
2022/11/29 10:34:06;;;;;;;65.45;25.55;;;8.40;99.90;;;;;;5065336;28;20491;-79
2022/11/29 10:36:48;;;;;;;60.22;26.05;;;8.40;99.90;;;;;;5065895;28;20040;-78
2022/11/29 10:39:20;;;;;;;59.67;24.88;;;8.40;99.90;;;;;;5061141;28;20048;-77
2022/11/29 10:42:00;;;;;;;53.67;24.00;;;8.40;99.90;;;;;;5065206;28;20071;-79
2022/11/29 10:44:26;;;;;;;54.47;26.10;;;8.40;99.90;;;;;;5060765;28;20040;-77
2022/11/29 10:46:53;;;;;;;55.95;24.70;;;8.40;99.90;;;;;;5060974;28;20051;-80
2022/11/29 10:49:22;;;;;;;51.83;23.48;;;8.40;99.90;;;;;;5060093;28;20566;-83
2022/11/29 10:51:48;;;;;;;51.50;23.05;;;8.40;99.90;;;;;;5091904;28;20098;-80
2022/11/29 10:54:19;;;;;;;53.03;24.90;;;8.40;99.90;;;;;;5062602;28;20105;-74
2022/11/29 10:56:45;;;;;;;48.92;21.38;;;8.50;99.90;;;;;;5064215;28;20049;-73
2022/11/29 10:59:20;;;;;;;47.63;23.50;;;8.50;99.90;;;;;;5066905;28;20052;-74
2022/11/29 11:01:46;;;;;;;47.42;21.48;;;8.50;99.90;;;;;;5067508;28;20310;-73
2022/11/29 11:04:30;;;;;;;45.10;21.95;;;8.50;99.90;;;;;;5066578;28;20045;-73
2022/11/29 11:06:59;;;;;;;51.13;22.77;;;8.50;99.90;;;;;;5065641;28;20106;-73
2022/11/29 11:09:31;;;;;;;46.58;20.42;;;8.50;99.90;;;;;;5067127;28;20060;-73
2022/11/29 11:12:01;;;;;;;44.92;23.08;;;8.50;99.90;;;;;;5064621;28;20443;-74
2022/11/29 11:14:30;;;;;;;41.95;20.25;;;8.50;99.90;;;;;;5061689;28;20079;-74
2022/11/29 11:17:12;;;;;;;47.55;22.65;;;8.50;99.90;;;;;;5063859;28;20083;-74
2022/11/29 11:19:38;;;;;;;47.70;23.08;;;8.60;99.90;;;;;;5066876;28;20491;-73
2022/11/29 11:22:04;;;;;;;47.28;21.92;;;8.60;99.90;;;;;;5061186;28;20068;-74
2022/11/29 11:24:36;;;;;;;42.13;22.02;;;8.70;99.90;;;;;;5062528;28;20068;-76
2022/11/29 11:27:02;;;;;;;40.72;19.52;;;8.70;99.90;;;;;;5074139;28;20059;-73
2022/11/29 11:29:39;;;;;;;39.50;20.88;;;8.70;99.90;;;;;;5048919;28;20045;-75
2022/11/29 11:32:15;;;;;;;39.60;18.70;;;8.70;99.90;;;;;;5055478;28;20495;-75
2022/11/29 11:34:57;;;;;;;40.83;21.58;;;8.80;99.90;;;;;;5053607;28;20044;-73
2022/11/29 11:37:32;;;;;;;42.17;18.90;;;8.80;99.90;;;;;;5065324;28;20105;-75
2022/11/29 11:40:27;;;;;;;40.10;20.48;;;8.80;99.90;;;;;;5065988;28;20036;-75
2022/11/29 11:42:55;;;;;;;34.80;18.75;;;8.80;99.90;;;;;;5056555;28;20056;-75
2022/11/29 11:45:32;;;;;;;41.47;21.42;;;8.80;99.90;;;;;;5072823;28;20122;-82
2022/11/29 11:48:10;;;;;;;33.20;17.70;;;8.80;99.90;;;;;;5053513;28;20816;-81
2022/11/29 11:50:48;;;;;;;34.28;18.63;;;8.90;99.90;;;;;;5065521;28;20039;-79
2022/11/29 11:53:20;;;;;;;37.17;17.90;;;8.90;99.90;;;;;;5068737;28;20068;-79
2022/11/29 11:55:56;;;;;;;36.13;19.27;;;8.90;99.90;;;;;;5065767;28;20060;-78
2022/11/29 11:58:26;;;;;;;33.38;18.27;;;8.90;99.90;;;;;;5066560;28;20086;-72
2022/11/29 12:01:11;;;;;;;36.13;18.33;;;8.80;99.90;;;;;;5062923;28;20132;-72
2022/11/29 12:03:55;;;;;;;34.75;18.85;;;8.80;99.90;;;;;;5062466;28;20055;-72
2022/11/29 12:06:45;;;;;;;34.95;19.23;;;8.80;99.90;;;;;;5066463;28;20127;-71
2022/11/29 12:09:18;;;;;;;33.75;18.65;;;8.80;99.90;;;;;;5067123;28;20044;-71
2022/11/29 12:11:49;;;;;;;38.85;19.98;;;8.80;99.90;;;;;;5070741;28;20044;-72
2022/11/29 12:14:27;;;;;;;37.78;18.02;;;8.80;99.90;;;;;;5063590;28;20115;-71
2022/11/29 12:17:02;;;;;;;35.08;17.95;;;8.80;99.90;;;;;;5096700;27;20062;-72
2022/11/29 12:19:34;;;;;;;36.22;19.67;;;8.80;99.90;;;;;;5092759;28;20055;-71
2022/11/29 12:22:10;;;;;;;32.45;18.13;;;9.00;99.90;;;;;;5061052;28;20163;-73
2022/11/29 12:24:47;;;;;;;32.65;16.13;;;8.90;99.90;;;;;;5064271;28;20048;-75
2022/11/29 12:27:14;;;;;;;35.83;16.88;;;8.90;99.90;;;;;;5057813;28;20044;-75
2022/11/29 12:29:40;;;;;;;31.20;15.40;;;8.90;99.90;;;;;;5067636;28;20164;-74
2022/11/29 12:32:24;;;;;;;32.05;17.00;;;8.90;99.90;;;;;;5058230;28;20428;-75
2022/11/29 12:34:56;;;;;;;32.03;15.52;;;8.90;99.90;;;;;;5059223;28;20037;-75
2022/11/29 12:37:30;;;;;;;31.15;15.63;;;8.90;99.90;;;;;;5069891;28;20396;-77
2022/11/29 12:40:19;;;;;;;34.15;15.43;;;8.90;99.90;;;;;;5057454;28;20128;-75
2022/11/29 12:43:04;;;;;;;27.42;14.40;;;8.90;99.90;;;;;;5060514;28;20044;-75
2022/11/29 12:46:07;;;;;;;33.92;15.50;;;8.90;99.90;;;;;;5070869;28;20048;-73
2022/11/29 12:48:46;;;;;;;26.63;14.60;;;8.90;99.90;;;;;;5063067;28;20476;-74
2022/11/29 12:51:40;;;;;;;29.83;15.30;;;8.90;99.90;;;;;;5082427;28;21917;-74
2022/11/29 12:54:19;;;;;;;26.52;13.90;;;8.90;99.90;;;;;;5064275;28;20044;-74
2022/11/29 12:57:17;;;;;;;30.73;13.95;;;8.90;99.90;;;;;;5086934;28;20109;-74
2022/11/29 13:00:02;;;;;;;30.45;15.15;;;8.90;99.90;;;;;;5063909;28;20101;-73
2022/11/29 13:02:43;;;;;;;30.20;14.98;;;8.90;99.90;;;;;;5057711;28;20037;-73
2022/11/29 13:05:41;;;;;;;30.85;15.60;;;8.80;99.90;;;;;;5084974;28;20047;-73
2022/11/29 13:08:28;;;;;;;29.38;14.75;;;8.90;99.90;;;;;;5061544;28;20123;-73
2022/11/29 13:11:00;;;;;;;;;;;8.90;99.90;;;;;;5068158;28;20060;-72
2022/11/29 13:13:55;;;;;;;27.25;14.00;;;8.80;99.90;;;;;;5061217;28;19956;-73
2022/11/29 13:16:44;;;;;;;31.75;15.20;;;8.80;99.90;;;;;;5069548;28;20066;-72
2022/11/29 13:19:30;;;;;;;35.80;16.30;;;8.90;99.90;;;;;;5059918;28;20080;-72
2022/11/29 13:22:14;;;;;;;35.25;15.60;;;8.90;99.90;;;;;;5062213;28;20096;-72
2022/11/29 13:24:49;;;;;;;34.20;15.63;;;8.90;99.90;;;;;;5067009;28;20093;-72